createdAt,value
2023-01-25T00:01:13.037Z,16.00
2023-01-25T00:03:16.674Z,14.33
2023-01-25T00:05:19.839Z,15.53
2023-01-25T00:07:22.584Z,16.90
2023-01-25T00:09:25.667Z,15.00
2023-01-25T00:11:28.318Z,13.60
2023-01-25T00:13:31.450Z,16.07
2023-01-25T00:15:35.451Z,13.53
2023-01-25T00:17:38.179Z,14.93
2023-01-25T00:19:40.866Z,14.97
2023-01-25T00:21:43.991Z,14.80
2023-01-25T00:23:46.718Z,14.80
2023-01-25T00:25:49.427Z,13.90
2023-01-25T00:27:52.386Z,14.87
2023-01-25T00:29:55.509Z,14.70
2023-01-25T00:32:25.949Z,14.77
2023-01-25T00:34:40.294Z,14.33
2023-01-25T00:36:43.039Z,14.90
2023-01-25T00:38:46.228Z,14.30
2023-01-25T00:40:50.354Z,13.83
2023-01-25T00:42:53.054Z,14.80
2023-01-25T00:44:55.721Z,14.10
2023-01-25T00:46:58.963Z,15.60
2023-01-25T00:49:02.992Z,15.50
2023-01-25T00:51:05.872Z,15.63
2023-01-25T00:53:08.568Z,14.80
2023-01-25T00:55:11.642Z,14.13
2023-01-25T00:57:14.337Z,15.03
2023-01-25T00:59:17.050Z,13.20
2023-01-25T01:01:19.746Z,16.60
2023-01-25T01:03:22.767Z,13.57
2023-01-25T01:05:27.523Z,15.23
2023-01-25T01:07:30.240Z,15.10
2023-01-25T01:09:33.379Z,15.97
2023-01-25T01:11:36.582Z,14.70
2023-01-25T01:13:39.607Z,15.90
2023-01-25T01:15:42.297Z,17.07
2023-01-25T01:17:44.963Z,15.87
2023-01-25T01:19:48.067Z,16.07
2023-01-25T01:21:51.998Z,17.07
2023-01-25T01:23:55.080Z,17.00
2023-01-25T01:26:00.377Z,16.53
2023-01-25T01:28:03.494Z,19.10
2023-01-25T01:30:06.965Z,18.30
2023-01-25T01:32:09.753Z,16.60
2023-01-25T01:34:13.919Z,17.50
2023-01-25T01:36:17.614Z,16.00
2023-01-25T01:38:21.642Z,18.00
2023-01-25T01:40:25.022Z,18.63
2023-01-25T01:42:27.776Z,17.87
2023-01-25T01:44:45.383Z,17.93
2023-01-25T01:46:50.227Z,18.30
2023-01-25T01:48:55.390Z,18.47
2023-01-25T01:50:59.724Z,18.27
2023-01-25T01:53:02.806Z,19.30
2023-01-25T01:55:08.641Z,20.73
2023-01-25T01:57:12.859Z,20.77
2023-01-25T01:59:16.238Z,17.73
2023-01-25T02:01:20.244Z,18.60
2023-01-25T02:03:23.099Z,19.00
2023-01-25T02:05:28.253Z,19.60
2023-01-25T02:07:34.717Z,20.10
2023-01-25T02:09:38.142Z,20.63
2023-01-25T02:11:42.162Z,20.17
2023-01-25T02:13:44.876Z,20.03
2023-01-25T02:15:49.087Z,20.07
2023-01-25T02:17:52.130Z,17.73
2023-01-25T02:19:57.266Z,19.47
2023-01-25T02:22:00.023Z,20.10
2023-01-25T02:24:05.601Z,22.13
2023-01-25T02:26:10.323Z,20.67
2023-01-25T02:28:16.509Z,19.97
2023-01-25T02:30:19.247Z,18.93
2023-01-25T02:32:22.039Z,20.47
2023-01-25T02:34:25.222Z,20.97
2023-01-25T02:36:28.873Z,20.77
2023-01-25T02:38:31.883Z,19.40
2023-01-25T02:40:35.607Z,20.60
2023-01-25T02:42:42.651Z,20.00
2023-01-25T02:44:45.322Z,21.47
2023-01-25T02:46:48.756Z,20.87
2023-01-25T02:48:51.461Z,19.07
2023-01-25T02:50:54.148Z,21.13
2023-01-25T02:52:56.853Z,20.97
2023-01-25T02:54:59.526Z,20.63
2023-01-25T02:57:02.561Z,19.93
2023-01-25T02:59:06.582Z,20.77
2023-01-25T03:01:09.635Z,20.93
2023-01-25T03:03:12.603Z,19.20
2023-01-25T03:05:15.914Z,21.47
2023-01-25T03:07:18.947Z,21.60
2023-01-25T03:09:21.609Z,20.10
2023-01-25T03:11:24.305Z,20.50
2023-01-25T03:13:27.490Z,19.37
2023-01-25T03:15:31.495Z,21.80
2023-01-25T03:17:34.199Z,19.10
2023-01-25T03:19:36.946Z,21.77
2023-01-25T03:21:41.215Z,19.07
2023-01-25T03:23:44.045Z,18.70
2023-01-25T03:25:46.737Z,20.27
2023-01-25T03:27:48.880Z,19.90
2023-01-25T03:29:51.935Z,20.23
2023-01-25T03:31:56.001Z,20.33
2023-01-25T03:33:58.731Z,19.43
2023-01-25T03:36:01.480Z,20.77
2023-01-25T03:38:04.668Z,20.70
2023-01-25T03:40:08.398Z,21.40
2023-01-25T03:42:11.119Z,21.00
2023-01-25T03:44:13.935Z,19.37
2023-01-25T03:46:16.996Z,20.50
2023-01-25T03:48:21.084Z,19.60
2023-01-25T03:50:23.791Z,21.30
2023-01-25T03:52:27.364Z,18.87
2023-01-25T03:54:31.390Z,19.40
2023-01-25T03:56:34.104Z,19.00
2023-01-25T03:58:37.059Z,20.33
2023-01-25T04:00:39.831Z,20.80
2023-01-25T04:02:43.025Z,20.57
2023-01-25T04:04:47.156Z,20.13
2023-01-25T04:06:49.950Z,18.50
2023-01-25T04:08:53.090Z,18.13
2023-01-25T04:10:56.714Z,19.50
2023-01-25T04:12:59.407Z,18.30
2023-01-25T04:15:02.090Z,20.23
2023-01-25T04:17:08.242Z,19.17
2023-01-25T04:19:11.311Z,19.70
2023-01-25T04:21:15.296Z,18.73
2023-01-25T04:23:17.983Z,20.30
2023-01-25T04:25:20.819Z,19.63
2023-01-25T04:27:23.862Z,20.00
2023-01-25T04:29:40.069Z,19.20
2023-01-25T04:31:44.074Z,20.20
2023-01-25T04:33:46.823Z,19.73
2023-01-25T04:35:49.956Z,21.30
2023-01-25T04:37:57.309Z,18.53
2023-01-25T04:40:00.086Z,18.30
2023-01-25T04:42:02.774Z,19.73
2023-01-25T04:44:06.125Z,18.80
2023-01-25T04:46:10.173Z,18.70
2023-01-25T04:48:13.339Z,19.13
2023-01-25T04:50:16.591Z,19.60
2023-01-25T04:52:19.278Z,20.70
2023-01-25T04:54:23.243Z,18.87
2023-01-25T04:56:26.558Z,19.97
2023-01-25T04:58:29.616Z,18.13
2023-01-25T05:00:32.439Z,18.67
2023-01-25T05:02:35.221Z,18.63
2023-01-25T05:04:37.982Z,16.50
2023-01-25T05:06:41.124Z,17.90
2023-01-25T05:08:43.803Z,17.97
2023-01-25T05:10:47.810Z,17.50
2023-01-25T05:12:50.497Z,16.23
2023-01-25T05:14:53.552Z,16.57
2023-01-25T05:16:56.514Z,15.47
2023-01-25T05:18:59.262Z,15.73
2023-01-25T05:21:02.005Z,16.53
2023-01-25T05:23:05.026Z,15.63
2023-01-25T05:25:28.393Z,15.00
2023-01-25T05:27:32.434Z,15.20
2023-01-25T05:29:36.870Z,16.40
2023-01-25T05:31:39.913Z,14.57
2023-01-25T05:33:42.610Z,15.10
2023-01-25T05:35:45.314Z,15.23
2023-01-25T05:37:48.101Z,13.03
2023-01-25T05:39:51.197Z,14.70
2023-01-25T05:41:53.966Z,12.90
2023-01-25T05:43:57.971Z,13.67
2023-01-25T05:46:00.727Z,14.73
2023-01-25T05:48:03.796Z,13.50
2023-01-25T05:50:08.814Z,12.60
2023-01-25T05:52:15.115Z,14.00
2023-01-25T05:54:18.389Z,13.90
2023-01-25T05:56:21.496Z,13.70
2023-01-25T05:58:24.195Z,12.87
2023-01-25T06:00:28.413Z,13.87
2023-01-25T06:02:32.029Z,12.63
2023-01-25T06:04:34.761Z,12.90
2023-01-25T06:06:37.502Z,12.13
2023-01-25T06:08:40.228Z,12.70
2023-01-25T06:10:43.250Z,12.97
2023-01-25T06:12:45.929Z,11.63
2023-01-25T06:14:48.698Z,12.10
2023-01-25T06:16:52.768Z,11.53
2023-01-25T06:18:55.790Z,12.13
2023-01-25T06:20:58.535Z,10.70
2023-01-25T06:23:01.247Z,11.53
2023-01-25T06:25:09.307Z,12.37
2023-01-25T06:27:13.192Z,11.20
2023-01-25T06:29:18.633Z,11.20
2023-01-25T06:31:21.554Z,11.17
2023-01-25T06:33:25.951Z,10.63
2023-01-25T06:35:28.871Z,10.00
2023-01-25T06:37:31.585Z,10.50
2023-01-25T06:39:34.354Z,10.87
2023-01-25T06:41:39.411Z,8.97
2023-01-25T06:43:42.151Z,10.20
2023-01-25T06:45:44.859Z,10.47
2023-01-25T06:47:49.698Z,10.10
2023-01-25T06:49:53.660Z,9.10
2023-01-25T06:51:56.415Z,9.70
2023-01-25T06:53:59.096Z,9.57
2023-01-25T06:56:02.859Z,9.20
2023-01-25T06:58:05.578Z,9.00
2023-01-25T07:00:09.614Z,10.00
2023-01-25T07:02:14.052Z,9.47
2023-01-25T07:04:17.066Z,10.60
2023-01-25T07:06:21.018Z,9.20
2023-01-25T07:08:23.721Z,9.70
2023-01-25T07:10:26.566Z,9.93
2023-01-25T07:12:30.478Z,9.43
2023-01-25T07:14:33.219Z,9.33
2023-01-25T07:16:38.977Z,8.63
2023-01-25T07:18:42.249Z,9.60
2023-01-25T07:20:45.452Z,9.53
2023-01-25T07:22:49.433Z,8.80
2023-01-25T07:24:53.888Z,8.93
2023-01-25T07:26:56.662Z,9.37
2023-01-25T07:29:00.539Z,9.77
2023-01-25T07:31:07.394Z,10.00
2023-01-25T07:33:10.410Z,11.07
2023-01-25T07:35:13.486Z,11.87
2023-01-25T07:37:16.208Z,10.60
2023-01-25T07:39:20.261Z,10.13
2023-01-25T07:41:22.977Z,9.47
2023-01-25T07:43:26.485Z,10.40
2023-01-25T07:45:30.563Z,10.97
2023-01-25T07:47:33.259Z,9.30
2023-01-25T07:49:36.431Z,12.73
2023-01-25T07:51:39.261Z,12.20
2023-01-25T07:53:42.142Z,9.53
2023-01-25T07:55:46.211Z,10.23
2023-01-25T07:57:49.447Z,12.40
2023-01-25T07:59:52.232Z,12.30
2023-01-25T08:01:55.095Z,13.03
2023-01-25T08:03:58.054Z,12.90
2023-01-25T08:06:01.198Z,11.83
2023-01-25T08:08:03.956Z,11.73
2023-01-25T08:10:08.078Z,11.97
2023-01-25T08:12:12.190Z,13.03
2023-01-25T08:14:15.426Z,11.73
2023-01-25T08:16:19.315Z,14.00
2023-01-25T08:18:22.434Z,13.50
2023-01-25T08:20:25.194Z,13.23
2023-01-25T08:22:28.639Z,13.30
2023-01-25T08:24:31.393Z,14.30
2023-01-25T08:26:34.295Z,14.10
2023-01-25T08:28:38.278Z,13.10
2023-01-25T08:30:56.440Z,15.23
2023-01-25T08:33:01.561Z,15.37
2023-01-25T08:35:04.396Z,15.93
2023-01-25T08:37:07.110Z,15.70
2023-01-25T08:39:12.768Z,17.67
2023-01-25T08:41:16.870Z,21.37
2023-01-25T08:43:19.626Z,17.00
2023-01-25T08:45:23.666Z,16.23
2023-01-25T08:47:26.906Z,15.67
2023-01-25T08:49:31.109Z,20.67
2023-01-25T08:51:33.862Z,16.50
2023-01-25T08:53:36.585Z,14.27
2023-01-25T08:55:40.569Z,19.37
2023-01-25T08:57:44.377Z,17.43
2023-01-25T08:59:47.747Z,18.27
2023-01-25T09:01:51.742Z,17.30
2023-01-25T09:03:58.938Z,14.60
2023-01-25T09:06:01.699Z,17.73
2023-01-25T09:08:05.905Z,19.83
2023-01-25T09:10:10.988Z,16.60
2023-01-25T09:12:17.722Z,17.20
2023-01-25T09:14:20.738Z,15.20
2023-01-25T09:16:29.386Z,17.20
2023-01-25T09:18:34.153Z,16.50
2023-01-25T09:20:40.752Z,16.93
2023-01-25T09:22:45.889Z,17.17
2023-01-25T09:24:52.388Z,17.87
2023-01-25T09:26:59.699Z,16.43
2023-01-25T09:29:04.068Z,16.50
2023-01-25T09:31:20.875Z,17.67
2023-01-25T09:33:28.801Z,17.97
2023-01-25T09:35:35.635Z,14.40
2023-01-25T09:37:39.004Z,18.97
2023-01-25T09:39:42.195Z,21.90
2023-01-25T09:42:06.713Z,18.10
2023-01-25T09:44:20.523Z,17.17
2023-01-25T09:46:28.619Z,19.57
2023-01-25T09:48:40.187Z,19.63
2023-01-25T09:50:54.433Z,18.93
2023-01-25T09:53:07.187Z,18.50
2023-01-25T09:55:13.426Z,18.30
2023-01-25T09:57:17.468Z,16.93
2023-01-25T09:59:21.914Z,18.90
2023-01-25T10:01:38.278Z,19.50
2023-01-25T10:03:45.009Z,19.13
2023-01-25T10:05:50.918Z,18.33
2023-01-25T10:07:58.569Z,17.47
2023-01-25T10:10:06.960Z,19.20
2023-01-25T10:12:17.363Z,17.50
2023-01-25T10:14:21.614Z,17.20
2023-01-25T10:16:27.420Z,17.60
2023-01-25T10:18:34.175Z,16.47
2023-01-25T10:20:39.959Z,18.10
2023-01-25T10:22:46.120Z,19.77
2023-01-25T10:25:00.946Z,16.17
2023-01-25T10:27:08.834Z,19.37
2023-01-25T10:29:12.676Z,18.73
2023-01-25T10:31:19.018Z,18.00
2023-01-25T10:33:22.155Z,18.20
2023-01-25T10:35:35.515Z,19.70
2023-01-25T10:37:39.544Z,18.17
2023-01-25T10:39:56.481Z,20.30
2023-01-25T10:42:00.406Z,20.77
2023-01-25T10:44:14.098Z,19.70
2023-01-25T10:46:19.490Z,19.20
2023-01-25T10:48:24.496Z,18.10
2023-01-25T10:50:45.063Z,18.20
2023-01-25T10:52:57.500Z,18.47
2023-01-25T10:55:14.938Z,21.10
2023-01-25T10:57:19.423Z,19.97
2023-01-25T10:59:24.112Z,19.83
2023-01-25T11:01:29.068Z,21.50
2023-01-25T11:03:36.744Z,21.50
2023-01-25T11:05:43.217Z,22.57
2023-01-25T11:07:46.130Z,19.50
2023-01-25T11:09:48.834Z,18.60
2023-01-25T11:11:56.416Z,21.20
2023-01-25T11:13:59.141Z,23.17
2023-01-25T11:16:18.624Z,22.63
2023-01-25T11:18:23.148Z,22.67
2023-01-25T11:20:26.244Z,28.10
2023-01-25T11:22:29.284Z,20.57
2023-01-25T11:24:32.459Z,21.30
2023-01-25T11:26:36.478Z,22.87
2023-01-25T11:28:40.468Z,22.30
2023-01-25T11:30:43.231Z,21.20
2023-01-25T11:32:46.499Z,20.57
2023-01-25T11:34:49.721Z,21.43
2023-01-25T11:36:59.063Z,20.43
2023-01-25T11:39:11.353Z,23.87
2023-01-25T11:41:18.316Z,20.80
2023-01-25T11:43:28.871Z,24.63
2023-01-25T11:45:42.715Z,20.67
2023-01-25T11:47:54.194Z,28.10
2023-01-25T11:50:02.679Z,19.10
2023-01-25T11:52:10.028Z,19.00
2023-01-25T11:54:28.579Z,21.50
2023-01-25T11:56:37.467Z,20.10
2023-01-25T11:58:47.680Z,16.40
2023-01-25T12:00:59.328Z,17.50
2023-01-25T12:03:12.454Z,19.07
2023-01-25T12:05:22.662Z,21.60
2023-01-25T12:07:31.998Z,18.20
2023-01-25T12:09:42.982Z,18.43
2023-01-25T12:11:53.388Z,18.47
2023-01-25T12:13:59.856Z,24.13
2023-01-25T12:16:13.388Z,17.07
2023-01-25T12:18:29.793Z,25.10
2023-01-25T12:20:40.400Z,19.27
2023-01-25T12:22:53.331Z,18.70
2023-01-25T12:24:59.902Z,23.53
2023-01-25T12:27:09.747Z,27.83
2023-01-25T12:29:19.571Z,19.97
2023-01-25T12:31:25.330Z,22.83
2023-01-25T12:33:30.149Z,18.30
2023-01-25T12:35:35.396Z,20.40
2023-01-25T12:37:38.762Z,20.03
2023-01-25T12:39:43.518Z,23.57
2023-01-25T12:41:47.497Z,19.33
2023-01-25T12:43:52.503Z,17.73
2023-01-25T12:45:55.654Z,17.20
2023-01-25T12:48:01.437Z,16.90
2023-01-25T12:50:05.922Z,20.90
2023-01-25T12:52:23.383Z,19.30
2023-01-25T12:54:29.219Z,19.83
2023-01-25T12:56:35.739Z,17.20
2023-01-25T12:58:41.912Z,17.63
2023-01-25T13:00:48.450Z,21.03
2023-01-25T13:02:56.227Z,23.20
2023-01-25T13:05:03.589Z,21.57
2023-01-25T13:07:11.216Z,18.77
2023-01-25T13:09:17.240Z,21.70
2023-01-25T13:11:21.507Z,18.30
2023-01-25T13:13:25.295Z,19.37
2023-01-25T13:15:39.072Z,19.60
2023-01-25T13:17:41.772Z,19.27
2023-01-25T13:19:44.510Z,16.90
2023-01-25T13:21:49.104Z,15.67
2023-01-25T13:24:08.670Z,17.97
2023-01-25T13:26:38.258Z,18.93
2023-01-25T13:28:42.524Z,17.30
2023-01-25T13:30:53.090Z,18.70
2023-01-25T13:32:57.425Z,20.23
2023-01-25T13:35:00.662Z,16.50
2023-01-25T13:37:04.748Z,15.77
2023-01-25T13:39:34.601Z,16.77
2023-01-25T13:41:37.279Z,16.83
2023-01-25T13:43:41.927Z,15.97
2023-01-25T13:45:44.768Z,16.37
2023-01-25T13:48:00.936Z,16.90
2023-01-25T13:50:05.322Z,17.30
2023-01-25T13:52:09.330Z,16.47
2023-01-25T13:54:16.067Z,17.20
2023-01-25T13:56:26.665Z,17.90
2023-01-25T13:58:30.443Z,19.93
2023-01-25T14:00:33.186Z,15.50
2023-01-25T14:02:35.990Z,16.67
2023-01-25T14:04:39.138Z,15.77
2023-01-25T14:06:42.026Z,18.10
2023-01-25T14:08:46.254Z,17.87
2023-01-25T14:10:49.276Z,19.87
2023-01-25T14:12:52.267Z,19.70
2023-01-25T14:14:55.005Z,19.60
2023-01-25T14:17:04.852Z,18.77
2023-01-25T14:19:22.663Z,17.87
2023-01-25T14:21:25.644Z,18.90
2023-01-25T14:23:29.168Z,16.57
2023-01-25T14:25:33.580Z,18.50
2023-01-25T14:27:36.517Z,16.00
2023-01-25T14:31:41.817Z,15.83
2023-01-25T14:33:47.804Z,22.10
2023-01-25T14:35:55.542Z,16.50
2023-01-25T14:38:01.585Z,17.43
2023-01-25T14:40:13.869Z,16.60
2023-01-25T14:42:17.933Z,16.30
2023-01-25T14:44:20.644Z,18.60
2023-01-25T14:46:25.405Z,17.77
2023-01-25T14:48:36.448Z,17.67
2023-01-25T14:50:39.771Z,15.10
2023-01-25T14:52:42.497Z,14.67
2023-01-25T14:54:47.304Z,16.53
2023-01-25T14:56:52.126Z,13.27
2023-01-25T14:59:00.199Z,13.77
2023-01-25T15:01:03.456Z,15.27
2023-01-25T15:03:06.703Z,15.57
2023-01-25T15:05:19.117Z,15.90
2023-01-25T15:07:35.238Z,16.80
2023-01-25T15:09:40.034Z,17.10
2023-01-25T15:11:49.854Z,13.77
2023-01-25T15:14:02.877Z,16.67
2023-01-25T15:16:06.202Z,16.73
2023-01-25T15:18:40.094Z,14.30
2023-01-25T15:20:43.593Z,15.17
2023-01-25T15:22:46.337Z,15.27
2023-01-25T15:24:57.431Z,13.97
2023-01-25T15:27:03.409Z,13.27
2023-01-25T15:29:13.450Z,13.43
2023-01-25T15:31:17.975Z,12.10
2023-01-25T15:33:22.358Z,11.47
2023-01-25T15:35:25.155Z,14.53
2023-01-25T15:37:27.925Z,14.40
2023-01-25T15:39:32.605Z,12.63
2023-01-25T15:41:36.230Z,14.37
2023-01-25T15:43:41.532Z,14.33
2023-01-25T15:45:47.040Z,14.33
2023-01-25T15:47:50.080Z,12.47
2023-01-25T15:49:53.901Z,12.23
2023-01-25T15:51:56.919Z,11.60
2023-01-25T15:53:59.813Z,11.23
2023-01-25T15:56:04.264Z,14.73
2023-01-25T15:58:07.237Z,12.30
2023-01-25T16:00:16.336Z,12.47
2023-01-25T16:02:20.442Z,12.67
2023-01-25T16:04:25.186Z,15.10
2023-01-25T16:06:33.962Z,12.03
2023-01-25T16:08:36.680Z,11.97
2023-01-25T16:10:39.792Z,12.50
2023-01-25T16:12:42.653Z,11.10
2023-01-25T16:14:45.506Z,21.13
2023-01-25T16:16:50.121Z,13.53
2023-01-25T16:18:54.153Z,13.90
2023-01-25T16:20:56.869Z,12.07
2023-01-25T16:22:59.765Z,11.97
2023-01-25T16:25:04.493Z,11.10
2023-01-25T16:27:07.829Z,12.37
2023-01-25T16:29:11.369Z,13.17
2023-01-25T16:31:30.887Z,12.47
2023-01-25T16:33:36.036Z,13.03
2023-01-25T16:35:40.984Z,11.57
2023-01-25T16:37:43.752Z,12.20
2023-01-25T16:39:47.046Z,13.80
2023-01-25T16:41:49.915Z,12.87
2023-01-25T16:43:55.959Z,12.50
2023-01-25T16:45:59.420Z,11.90
2023-01-25T16:48:02.351Z,14.20
2023-01-25T16:50:05.519Z,11.80
2023-01-25T16:52:11.336Z,11.17
2023-01-25T16:54:14.325Z,12.30
2023-01-25T16:56:18.364Z,11.37
2023-01-25T16:58:21.586Z,13.60
2023-01-25T17:00:24.512Z,13.03
2023-01-25T17:02:27.279Z,12.70
2023-01-25T17:04:30.538Z,12.27
2023-01-25T17:06:35.155Z,10.47
2023-01-25T17:08:41.313Z,12.10
2023-01-25T17:10:44.315Z,12.97
2023-01-25T17:12:47.762Z,12.90
2023-01-25T17:14:50.521Z,14.00
2023-01-25T17:16:53.993Z,11.40
2023-01-25T17:19:03.803Z,11.70
2023-01-25T17:21:07.583Z,14.23
2023-01-25T17:23:10.647Z,12.57
2023-01-25T17:25:14.791Z,10.67
2023-01-25T17:27:17.502Z,16.83
2023-01-25T17:29:21.673Z,13.03
2023-01-25T17:31:26.331Z,12.70
2023-01-25T17:33:29.220Z,13.57
2023-01-25T17:35:36.109Z,12.10
2023-01-25T17:37:41.154Z,15.23
2023-01-25T17:39:44.108Z,13.43
2023-01-25T17:41:49.668Z,13.30
2023-01-25T17:43:53.225Z,13.30
2023-01-25T17:45:55.948Z,13.07
2023-01-25T17:47:59.255Z,12.67
2023-01-25T17:50:01.966Z,13.63
2023-01-25T17:52:14.458Z,12.57
2023-01-25T17:54:17.628Z,12.43
2023-01-25T17:56:20.552Z,13.70
2023-01-25T17:58:24.589Z,14.87
2023-01-25T18:00:28.402Z,13.07
2023-01-25T18:02:31.162Z,13.57
2023-01-25T18:04:34.702Z,13.30
2023-01-25T18:06:37.871Z,12.60
2023-01-25T18:08:41.263Z,12.27
2023-01-25T18:10:43.954Z,11.90
2023-01-25T18:13:03.650Z,12.77
2023-01-25T18:15:09.653Z,12.70
2023-01-25T18:17:12.627Z,13.77
2023-01-25T18:19:15.818Z,11.40
2023-01-25T18:21:22.151Z,14.63
2023-01-25T18:23:24.823Z,12.07
2023-01-25T18:25:31.731Z,11.70
2023-01-25T18:27:36.838Z,13.10
2023-01-25T18:29:45.230Z,12.40
2023-01-25T18:31:49.960Z,11.40
2023-01-25T18:33:52.686Z,11.97
2023-01-25T18:35:57.411Z,14.00
2023-01-25T18:38:00.652Z,11.40
2023-01-25T18:40:03.785Z,12.33
2023-01-25T18:42:06.586Z,12.43
2023-01-25T18:44:10.078Z,11.90
2023-01-25T18:46:13.080Z,12.97
2023-01-25T18:48:20.181Z,13.70
2023-01-25T18:50:23.724Z,11.60
2023-01-25T18:52:27.595Z,13.00
2023-01-25T18:54:30.721Z,14.60
2023-01-25T18:56:33.950Z,12.33
2023-01-25T18:58:37.446Z,13.30
2023-01-25T19:00:44.740Z,11.90
2023-01-25T19:02:48.051Z,11.33
2023-01-25T19:04:52.129Z,11.00
2023-01-25T19:06:57.379Z,12.27
2023-01-25T19:09:00.939Z,12.40
2023-01-25T19:11:05.937Z,14.40
2023-01-25T19:13:08.652Z,15.33
2023-01-25T19:15:12.519Z,15.60
2023-01-25T19:17:15.593Z,15.70
2023-01-25T19:19:18.788Z,18.40
2023-01-25T19:21:24.795Z,18.47
2023-01-25T19:23:27.746Z,17.60
2023-01-25T19:25:31.335Z,20.30
2023-01-25T19:27:34.700Z,19.53
2023-01-25T19:29:40.483Z,20.93
2023-01-25T19:31:43.316Z,23.20
2023-01-25T19:33:46.665Z,21.57
2023-01-25T19:35:49.355Z,21.53
2023-01-25T19:37:53.357Z,24.60
2023-01-25T19:39:56.052Z,20.17
2023-01-25T19:42:09.740Z,22.10
2023-01-25T19:44:13.691Z,21.80
2023-01-25T19:46:17.337Z,21.33
2023-01-25T19:48:21.950Z,23.53
2023-01-25T19:50:30.899Z,20.90
2023-01-25T19:52:33.632Z,21.90
2023-01-25T19:54:39.209Z,23.07
2023-01-25T19:56:43.721Z,23.80
2023-01-25T19:58:47.127Z,20.70
2023-01-25T20:00:50.263Z,21.90
2023-01-25T20:02:53.191Z,22.37
2023-01-25T20:04:56.038Z,23.43
2023-01-25T20:06:59.337Z,21.03
2023-01-25T20:09:02.013Z,23.00
2023-01-25T20:11:07.562Z,20.60
2023-01-25T20:13:15.866Z,23.73
2023-01-25T20:15:22.067Z,22.90
2023-01-25T20:17:24.793Z,24.20
2023-01-25T20:19:28.008Z,23.50
2023-01-25T20:21:33.145Z,23.73
2023-01-25T20:23:36.683Z,21.30
2023-01-25T20:25:40.489Z,22.33
2023-01-25T20:27:45.242Z,24.43
2023-01-25T20:29:49.979Z,25.87
2023-01-25T20:31:53.022Z,23.90
2023-01-25T20:33:58.157Z,24.00
2023-01-25T20:36:02.480Z,25.60
2023-01-25T20:38:07.099Z,26.03
2023-01-25T20:40:13.392Z,25.10
2023-01-25T20:42:17.349Z,25.17
2023-01-25T20:44:21.939Z,23.73
2023-01-25T20:46:24.979Z,24.27
2023-01-25T20:48:27.669Z,25.17
2023-01-25T20:50:30.876Z,22.33
2023-01-25T20:52:33.588Z,24.80
2023-01-25T20:54:38.687Z,25.10
2023-01-25T20:56:43.494Z,27.43
2023-01-25T20:58:57.549Z,25.10
2023-01-25T21:01:01.722Z,24.90
2023-01-25T21:03:05.026Z,25.37
2023-01-25T21:05:08.575Z,25.90
2023-01-25T21:07:11.431Z,25.23
2023-01-25T21:09:14.102Z,28.60
2023-01-25T21:11:17.177Z,25.90
2023-01-25T21:13:22.826Z,26.50
2023-01-25T21:15:25.790Z,26.67
2023-01-25T21:17:30.852Z,24.87
2023-01-25T21:19:34.043Z,26.57
2023-01-25T21:21:38.656Z,26.00
2023-01-25T21:23:42.315Z,28.17
2023-01-25T21:25:45.113Z,27.53
2023-01-25T21:27:49.200Z,27.57
2023-01-25T21:29:51.931Z,29.00
2023-01-25T21:31:54.698Z,29.83
2023-01-25T21:33:58.678Z,28.80
2023-01-25T21:36:01.815Z,29.10
2023-01-25T21:38:04.468Z,30.33
2023-01-25T21:40:08.172Z,29.57
2023-01-25T21:42:10.844Z,32.83
2023-01-25T21:44:24.949Z,31.57
2023-01-25T21:46:28.160Z,27.57
2023-01-25T21:48:46.540Z,25.80
2023-01-25T21:51:01.877Z,27.57
2023-01-25T21:53:04.610Z,26.13
2023-01-25T21:55:09.923Z,26.03
2023-01-25T21:57:12.985Z,26.77
2023-01-25T21:59:15.665Z,25.53
2023-01-25T22:01:20.113Z,22.80
2023-01-25T22:03:24.348Z,28.23
2023-01-25T22:05:27.427Z,23.80
2023-01-25T22:07:33.560Z,25.73
2023-01-25T22:09:36.431Z,23.57
2023-01-25T22:11:39.092Z,23.10
2023-01-25T22:13:42.243Z,22.80
2023-01-25T22:15:44.944Z,23.53
2023-01-25T22:17:47.624Z,23.47
2023-01-25T22:19:50.312Z,22.07
2023-01-25T22:21:53.248Z,22.40
2023-01-25T22:23:57.329Z,21.53
2023-01-25T22:26:02.487Z,22.50
2023-01-25T22:28:07.324Z,21.40
2023-01-25T22:30:12.248Z,21.97
2023-01-25T22:32:15.057Z,22.60
2023-01-25T22:34:17.752Z,21.70
2023-01-25T22:36:20.966Z,23.63
2023-01-25T22:38:24.169Z,20.17
2023-01-25T22:40:28.167Z,21.23
2023-01-25T22:42:30.832Z,19.50
2023-01-25T22:44:33.508Z,22.00
2023-01-25T22:46:36.704Z,20.90
2023-01-25T22:48:39.421Z,20.63
2023-01-25T22:50:42.145Z,21.80
2023-01-25T22:52:44.795Z,18.73
2023-01-25T22:54:50.149Z,20.07
2023-01-25T22:56:54.168Z,20.27
2023-01-25T22:58:56.861Z,18.63
2023-01-25T23:00:59.596Z,20.30
2023-01-25T23:03:02.658Z,17.47
2023-01-25T23:05:05.868Z,19.60
2023-01-25T23:07:18.511Z,16.87
2023-01-25T23:09:21.205Z,16.33
2023-01-25T23:11:25.212Z,17.97
2023-01-25T23:13:29.267Z,17.27
2023-01-25T23:15:31.978Z,20.00
2023-01-25T23:17:46.044Z,19.10
2023-01-25T23:19:48.705Z,19.33
2023-01-25T23:21:51.364Z,17.77
2023-01-25T23:23:54.398Z,18.70
2023-01-25T23:26:01.199Z,16.60
2023-01-25T23:28:03.929Z,18.67
2023-01-25T23:30:09.757Z,16.63
2023-01-25T23:32:12.931Z,16.17
2023-01-25T23:34:16.047Z,18.23
2023-01-25T23:36:19.408Z,18.50
2023-01-25T23:38:22.120Z,19.17
2023-01-25T23:40:24.979Z,17.20
2023-01-25T23:42:27.954Z,16.97
2023-01-25T23:44:31.158Z,16.50
2023-01-25T23:46:35.213Z,16.80
2023-01-25T23:48:37.878Z,17.17
2023-01-25T23:50:40.557Z,18.97
2023-01-25T23:52:43.254Z,18.30
2023-01-25T23:54:45.936Z,15.03
2023-01-25T23:56:48.931Z,15.07
2023-01-25T23:58:51.636Z,19.97
